Lawrenceville, GA

07:15 PM EST on februarie 22, 2017 (GMT -0500)
Collins Hill | | Change Station

Elev 1096 ft 34.00 °N, 84.01 °W | Updated 10 seconds ago

Cer în general noros
Cer în general noros
60.1 °F
Feels Like 60.1 °F
N
2.0
Vânt variabil Vânt from est
Gusts 2.0 mph

astăzi
High -- | Low -- °F
--% Chance of Precip.
Ieri
High -- | Low -- °F
Precip. -- inch
Presiunea 29.91 inch
Vizibilitatea 10.0 mile
Nori Cer senin
Punctul de rouă 56 °F
Umiditatea 85%
Precipitaţii 0.00 inch
Adâncimea zăpezii Not available.
7:12 AM 6:26 PM
Semilună în descreştere, 14% visible
METAR KWDR 222317Z AUTO 03005KT 10SM CLR 18/14 A2991 RMK AO1
Presiunea 29.91 inch
Vizibilitatea 10.0 mile
Nori Cer senin
Punctul de rouă 56 °F
Umiditatea 85%
Precipitaţii 0.00 inch
Adâncimea zăpezii Not available.
7:12 AM 6:26 PM
Semilună în descreştere, 14% visible
METAR KWDR 222317Z AUTO 03005KT 10SM CLR 18/14 A2991 RMK AO1

Get Your Daily Forecast Email!

Thanks for signing up!

Be on the lookout for a verification email in your inbox.

You'll start receiving the daily forecast at 8 AM.

×

10-Day Weather Forecast

Almanac

Astronomie

Feb. 22, 2017 Răsărit Apus
Timpul Actual
Crepusculul Civil
Crepusculul nautic
Răsărit Astronomic
Luna
Durata zilei lumină
Lungimea zilei
Tomorrow will be .
, % of the Moon is Illuminated

Extremele de azi

State Highs State Lows

Community

WunderPhotos

Upload Photos

1,962,540 photos uploaded!

WunderBlog® & News

Nearby

Calitatea aerului

  Calitatea aerului Index de calitate a aerului Poluat
Not available.

Adâncimea zapezii

Station Depth Elevation

Earthquake Activity

Oraş Distance Mag. Time & Date
Minimum magnitude displayed is 2.5.

Coastal Water Temperatures

Locul Temperatura

Stations

Nearby Weather Stations

Locaţia staţiei Temp Vânt rece Punctul de rouă Umiditatea Vânt Precip. Elev Actualizare Type
                   

Watches & Warnings

There are currently no watches in effect.